createdAt,value
2019-06-26T00:01:53.257Z,20.7
2019-06-26T00:06:55.595Z,20.6
2019-06-26T00:17:00.521Z,20.4
2019-06-26T00:22:03.014Z,20.4
2019-06-26T00:27:05.427Z,20.4
2019-06-26T00:32:07.906Z,20.4
2019-06-26T00:37:10.390Z,20.4
2019-06-26T00:42:12.858Z,20.4
2019-06-26T00:47:15.261Z,20.4
2019-06-26T00:52:17.745Z,20.5
2019-06-26T00:57:20.207Z,20.4
2019-06-26T01:02:22.652Z,20.4
2019-06-26T01:07:25.108Z,20.2
2019-06-26T01:12:27.588Z,20.1
2019-06-26T01:17:30.065Z,20
2019-06-26T01:22:32.524Z,19.9
2019-06-26T01:27:34.953Z,19.8
2019-06-26T01:32:37.428Z,19.7
2019-06-26T01:37:39.846Z,19.8
2019-06-26T01:42:42.302Z,20
2019-06-26T01:47:44.767Z,20
2019-06-26T01:52:47.220Z,20.1
2019-06-26T01:57:49.691Z,20
2019-06-26T02:02:52.454Z,20
2019-06-26T02:07:54.627Z,20
2019-06-26T02:12:57.066Z,20
2019-06-26T02:17:59.792Z,20
2019-06-26T02:23:02.017Z,20
2019-06-26T02:28:04.423Z,19.9
2019-06-26T02:33:06.880Z,19.8
2019-06-26T02:38:09.357Z,19.8
2019-06-26T02:43:11.805Z,19.6
2019-06-26T02:48:14.416Z,19.4
2019-06-26T02:53:16.733Z,19.3
2019-06-26T02:58:19.175Z,19.1
2019-06-26T03:03:21.693Z,19
2019-06-26T03:08:24.095Z,19
2019-06-26T03:13:26.604Z,19
2019-06-26T03:18:29.127Z,18.9
2019-06-26T03:23:31.470Z,18.8
2019-06-26T03:28:35.974Z,18.7
2019-06-26T03:33:36.455Z,18.7
2019-06-26T03:38:38.917Z,18.8
2019-06-26T03:43:41.470Z,18.8
2019-06-26T03:48:43.900Z,19
2019-06-26T03:53:46.213Z,19.1
2019-06-26T03:58:48.768Z,19.2
2019-06-26T04:03:51.204Z,19.3
2019-06-26T04:08:53.608Z,19.5
2019-06-26T04:13:56.073Z,19.6
2019-06-26T04:18:58.603Z,19.7
2019-06-26T04:24:00.999Z,19.9
2019-06-26T04:29:03.457Z,20.1
2019-06-26T04:34:05.925Z,20.3
2019-06-26T04:39:08.372Z,20.4
2019-06-26T04:44:10.846Z,20.7
2019-06-26T04:49:13.288Z,20.9
2019-06-26T04:54:15.771Z,21.1
2019-06-26T04:59:18.201Z,21.3
2019-06-26T05:04:20.665Z,21.5
2019-06-26T05:09:23.106Z,21.8
2019-06-26T05:14:25.603Z,22
2019-06-26T05:19:28.047Z,22.3
2019-06-26T05:24:30.496Z,22.5
2019-06-26T05:29:32.945Z,22.7
2019-06-26T05:34:35.507Z,23
2019-06-26T05:39:37.880Z,23.3
2019-06-26T05:44:40.358Z,23.7
2019-06-26T05:49:42.856Z,24
2019-06-26T05:54:45.245Z,24.3
2019-06-26T05:59:47.766Z,24.7
2019-06-26T06:04:50.284Z,25.1
2019-06-26T06:09:52.767Z,25.5
2019-06-26T06:14:55.085Z,26
2019-06-26T06:19:57.542Z,26.5
2019-06-26T06:25:00.010Z,27.1
2019-06-26T06:30:02.698Z,29.1
2019-06-26T06:35:05.013Z,32.6
2019-06-26T06:40:07.381Z,35.9
2019-06-26T06:45:09.863Z,37.6
2019-06-26T06:50:12.321Z,38.7
2019-06-26T06:55:14.803Z,39.5
2019-06-26T07:00:17.297Z,40.5
2019-06-26T07:05:19.870Z,41.1
2019-06-26T07:15:24.732Z,41.6
2019-06-26T07:20:27.094Z,42
2019-06-26T07:25:30.003Z,43.3
2019-06-26T07:30:32.041Z,44.6
2019-06-26T07:35:34.486Z,45.8
2019-06-26T07:40:37.142Z,46.6
2019-06-26T07:45:39.513Z,47.1
2019-06-26T07:50:41.896Z,48.1
2019-06-26T07:55:44.423Z,49.4
2019-06-26T08:00:46.839Z,50.7
2019-06-26T08:05:49.263Z,50.7
2019-06-26T08:10:51.710Z,51.5
2019-06-26T08:15:54.210Z,52.3
2019-06-26T08:21:11.284Z,53
2019-06-26T08:25:59.358Z,53.7
2019-06-26T08:31:01.611Z,54.2
2019-06-26T08:36:04.094Z,54.5
2019-06-26T08:41:06.533Z,55
2019-06-26T08:51:11.425Z,56
2019-06-26T08:56:13.886Z,56.4
2019-06-26T09:01:16.358Z,56.7
2019-06-26T09:06:18.853Z,57
2019-06-26T09:16:23.790Z,57.6
2019-06-26T09:21:26.339Z,56.9
2019-06-26T09:26:28.800Z,55.9
2019-06-26T09:31:31.099Z,55.5
2019-06-26T09:36:33.590Z,55.7
2019-06-26T09:41:36.110Z,55.4
2019-06-26T09:51:40.943Z,55.7
2019-06-26T09:56:43.408Z,56.5
2019-06-26T10:01:45.881Z,56.6
2019-06-26T10:06:48.345Z,56.4
2019-06-26T10:11:50.807Z,56.3
2019-06-26T10:16:53.303Z,56.6
2019-06-26T10:21:55.863Z,56.4
2019-06-26T10:26:58.302Z,55.2
2019-06-26T10:32:00.699Z,54
2019-06-26T10:37:03.118Z,53.4
2019-06-26T10:42:05.646Z,52.8
2019-06-26T10:47:08.116Z,53.7
2019-06-26T10:52:10.529Z,54.8
2019-06-26T10:57:12.959Z,55.4
2019-06-26T11:02:16.906Z,54
2019-06-26T11:07:18.011Z,54.1
2019-06-26T11:12:20.562Z,54.3
2019-06-26T11:17:23.060Z,54.2
2019-06-26T11:22:25.305Z,54.2
2019-06-26T11:27:27.793Z,54.4
2019-06-26T11:32:30.228Z,54.9
2019-06-26T11:37:32.649Z,53.8
2019-06-26T11:42:35.245Z,52.2
2019-06-26T11:47:37.674Z,51.5
2019-06-26T11:52:40.096Z,51.5
2019-06-26T11:57:42.499Z,52.2
2019-06-26T12:02:45.020Z,53.4
2019-06-26T12:07:47.454Z,54.4
2019-06-26T12:12:49.908Z,54.2
2019-06-26T12:17:52.551Z,54
2019-06-26T12:22:54.796Z,52.3
2019-06-26T12:27:57.312Z,50.4
2019-06-26T12:33:03.178Z,48.9
2019-06-26T12:38:02.190Z,47.7
2019-06-26T12:43:04.644Z,47.7
2019-06-26T12:48:07.553Z,47.7
2019-06-26T12:53:09.576Z,47.7
2019-06-26T12:58:14.857Z,48.3
2019-06-26T13:03:14.504Z,48.1
2019-06-26T13:08:17.205Z,47.4
2019-06-26T13:23:24.407Z,43.1
2019-06-26T13:28:26.829Z,42.2
2019-06-26T13:38:31.824Z,41
2019-06-26T13:43:34.214Z,40.8
2019-06-26T13:48:37.739Z,40.7
2019-06-26T13:53:39.285Z,40.4
2019-06-26T13:58:41.620Z,40.2
2019-06-26T14:03:44.145Z,39.9
2019-06-26T14:08:46.574Z,39.7
2019-06-26T14:13:49.103Z,39.5
2019-06-26T14:18:52.076Z,39.4
2019-06-26T14:23:53.944Z,39.4
2019-06-26T14:28:56.415Z,39.1
2019-06-26T14:33:58.999Z,38.9
2019-06-26T14:39:01.345Z,38.9
2019-06-26T14:44:03.860Z,39
2019-06-26T14:49:06.527Z,39
2019-06-26T14:54:08.752Z,39.1
2019-06-26T14:59:11.205Z,38.9
2019-06-26T15:04:13.649Z,38.7
2019-06-26T15:09:16.225Z,38.6
2019-06-26T15:14:18.717Z,38.6
2019-06-26T15:19:21.812Z,38.4
2019-06-26T15:24:23.586Z,38.4
2019-06-26T15:29:26.002Z,38.2
2019-06-26T15:34:28.456Z,38.1
2019-06-26T15:39:30.886Z,38
2019-06-26T15:44:33.399Z,37.9
2019-06-26T15:49:35.846Z,37.8
2019-06-26T15:54:38.260Z,37.6
2019-06-26T15:59:40.774Z,37.5
2019-06-26T16:04:43.163Z,37.3
2019-06-26T16:09:45.696Z,37.2
2019-06-26T16:14:48.098Z,37.1
2019-06-26T16:19:50.655Z,37
2019-06-26T16:24:53.060Z,36.9
2019-06-26T16:29:55.587Z,36.8
2019-06-26T16:34:57.953Z,36.7
2019-06-26T16:40:00.397Z,36.6
2019-06-26T16:45:02.888Z,36.5
2019-06-26T16:50:05.481Z,36.3
2019-06-26T16:55:07.812Z,36.2
2019-06-26T17:00:10.545Z,36.1
2019-06-26T17:05:12.754Z,35.9
2019-06-26T17:10:15.219Z,35.8
2019-06-26T17:15:17.699Z,35.7
2019-06-26T17:20:20.188Z,35.5
2019-06-26T17:25:22.548Z,35.4
2019-06-26T17:30:25.105Z,35.2
2019-06-26T17:35:27.467Z,35
2019-06-26T17:40:29.923Z,34.8
2019-06-26T17:45:32.439Z,34.6
2019-06-26T17:50:34.962Z,34.5
2019-06-26T17:55:37.433Z,34.3
2019-06-26T18:00:39.818Z,34.1
2019-06-26T18:05:42.359Z,34
2019-06-26T18:10:44.895Z,33.7
2019-06-26T18:15:47.311Z,33.5
2019-06-26T18:20:50.293Z,33.3
2019-06-26T18:25:54.382Z,33
2019-06-26T18:30:54.565Z,32.7
2019-06-26T18:35:56.983Z,32.4
2019-06-26T18:40:59.605Z,32
2019-06-26T18:46:02.022Z,31.6
2019-06-26T18:51:04.534Z,31.3
2019-06-26T18:56:06.954Z,30.9
2019-06-26T19:01:09.330Z,30.5
2019-06-26T19:06:11.760Z,30.2
2019-06-26T19:11:14.331Z,29.9
2019-06-26T19:16:16.694Z,29.7
2019-06-26T19:21:19.255Z,29.5
2019-06-26T19:26:21.649Z,29.3
2019-06-26T19:31:24.093Z,29.1
2019-06-26T19:36:28.609Z,28.8
2019-06-26T19:41:29.017Z,28.5
2019-06-26T19:46:31.463Z,28.4
2019-06-26T19:51:33.924Z,28.2
2019-06-26T19:56:36.423Z,28.2
2019-06-26T20:01:38.912Z,28.2
2019-06-26T20:06:41.258Z,28.2
2019-06-26T20:11:43.736Z,28.2
2019-06-26T20:16:46.189Z,28.1
2019-06-26T20:21:48.707Z,28
2019-06-26T20:26:51.179Z,27.9
2019-06-26T20:31:53.658Z,27.8
2019-06-26T20:36:56.195Z,27.6
2019-06-26T20:41:58.716Z,27.5
2019-06-26T20:47:00.970Z,27.5
2019-06-26T20:52:03.744Z,27.4
2019-06-26T20:57:05.885Z,27.3
2019-06-26T21:02:08.405Z,27.1
2019-06-26T21:07:10.822Z,27
2019-06-26T21:12:13.232Z,26.8
2019-06-26T21:17:15.707Z,26.6
2019-06-26T21:22:18.272Z,26.5
2019-06-26T21:27:20.631Z,26.4
2019-06-26T21:32:23.073Z,26.3
2019-06-26T21:37:25.547Z,26.1
2019-06-26T21:42:28.044Z,26
2019-06-26T21:47:30.488Z,25.7
2019-06-26T21:52:32.936Z,25.5
2019-06-26T21:57:35.444Z,25.4
2019-06-26T22:02:38.093Z,25.2
2019-06-26T22:07:40.355Z,25.1
2019-06-26T22:12:42.777Z,25.1
2019-06-26T22:17:45.240Z,25
2019-06-26T22:22:47.782Z,24.9
2019-06-26T22:27:50.196Z,24.9
2019-06-26T22:32:52.898Z,24.9
2019-06-26T22:37:55.030Z,24.9
2019-06-26T22:42:57.613Z,24.8
2019-06-26T22:47:59.951Z,24.7
2019-06-26T22:53:02.444Z,24.6
2019-06-26T22:58:04.946Z,24.5
2019-06-26T23:03:07.438Z,24.4
2019-06-26T23:08:09.805Z,24.3
2019-06-26T23:13:12.288Z,24.2
2019-06-26T23:18:14.776Z,24.1
2019-06-26T23:23:17.180Z,24.1
2019-06-26T23:28:19.639Z,24
2019-06-26T23:33:22.209Z,24
2019-06-26T23:38:24.552Z,23.9
2019-06-26T23:43:27.074Z,23.8
2019-06-26T23:48:29.580Z,23.7
2019-06-26T23:53:31.929Z,23.6
2019-06-26T23:58:34.433Z,23.5
